Time;durP1;ratioP1;P1;durP2;ratioP2;P2;SDS_P1;SDS_P2;PMS_P1;PMS_P2;Temp;Humidity;BMP_temperature;BMP_pressure;BME280_temperature;BME280_humidity;BME280_pressure;Samples;Min_cycle;Max_cycle;Signal;HPM_P1;HPM_P2
2022/08/02 00:01:44;;;;;;;4.80;2.90;;;;;;;21.36;60.77;100210.50;5074888;28;20474;-67
2022/08/02 00:04:10;;;;;;;7.20;3.03;;;;;;;21.31;60.59;100215.72;5079000;28;20040;-68
2022/08/02 00:06:36;;;;;;;6.85;3.42;;;;;;;21.27;60.30;100209.00;5075518;28;20062;-67
2022/08/02 00:09:03;;;;;;;12.15;3.03;;;;;;;21.10;60.44;100183.13;5070903;28;20411;-68
2022/08/02 00:11:29;;;;;;;6.50;3.00;;;;;;;21.21;60.47;100209.81;5071613;28;20428;-68
2022/08/02 00:13:55;;;;;;;6.03;2.95;;;;;;;21.16;60.95;100208.75;5077216;28;20131;-68
2022/08/02 00:16:20;;;;;;;7.20;2.83;;;;;;;21.15;61.18;100209.81;5071875;28;20081;-68
2022/08/02 00:18:46;;;;;;;4.82;3.25;;;;;;;21.11;61.50;100205.78;5076446;28;20032;-68
2022/08/02 00:21:11;;;;;;;5.35;2.88;;;;;;;21.08;61.60;100209.75;5074648;28;20087;-68
2022/08/02 00:23:37;;;;;;;6.15;3.47;;;;;;;21.05;61.81;100206.63;5073740;28;20028;-67
2022/08/02 00:26:02;;;;;;;8.90;2.95;;;;;;;21.01;62.05;100206.19;5075149;28;20031;-67
2022/08/02 00:28:28;;;;;;;3.72;2.80;;;;;;;21.01;62.22;100203.44;5070658;28;20052;-68
2022/08/02 00:30:53;;;;;;;6.65;3.03;;;;;;;21.01;62.22;100205.31;5067712;28;20028;-67
2022/08/02 00:33:19;;;;;;;4.80;2.53;;;;;;;21.00;61.61;100206.38;5075473;28;20066;-66
2022/08/02 00:35:47;;;;;;;5.45;2.70;;;;;;;20.99;60.97;100208.25;5069348;28;20032;-67
2022/08/02 00:38:13;;;;;;;6.63;2.47;;;;;;;21.02;60.56;100210.59;5052919;28;20025;-67
2022/08/02 00:40:38;;;;;;;4.25;2.30;;;;;;;21.05;59.88;100212.09;5052099;28;20032;-67
2022/08/02 00:43:08;;;;;;;3.60;1.90;;;;;;;21.07;58.57;100209.97;5065899;28;20074;-67
2022/08/02 00:45:35;;;;;;;4.80;2.10;;;;;;;21.09;58.07;100211.44;5067689;28;20457;-67
2022/08/02 00:48:01;;;;;;;3.30;1.88;;;;;;;21.12;57.07;100213.75;5069952;28;20041;-68
2022/08/02 00:50:27;;;;;;;8.50;2.20;;;;;;;21.08;56.14;100207.03;5072946;28;20557;-67
2022/08/02 00:52:52;;;;;;;3.13;2.10;;;;;;;21.17;55.74;100215.88;5068374;28;20040;-67
2022/08/02 00:55:18;;;;;;;4.25;2.03;;;;;;;21.19;55.18;100222.84;5068779;28;20078;-68
2022/08/02 00:57:44;;;;;;;2.78;1.67;;;;;;;21.25;54.37;100223.88;5067407;28;20044;-66
2022/08/02 01:00:10;;;;;;;5.18;1.80;;;;;;;21.12;53.85;100202.03;5080044;28;20086;-67
2022/08/02 01:02:35;;;;;;;9.77;2.17;;;;;;;21.27;53.96;100222.63;5067979;28;20056;-67
2022/08/02 01:05:01;;;;;;;5.10;2.35;;;;;;;21.28;55.41;100232.50;5069343;28;20079;-67
2022/08/02 01:07:27;;;;;;;5.35;2.42;;;;;;;21.26;56.23;100234.59;5069926;28;20025;-67
2022/08/02 01:09:52;;;;;;;4.00;2.10;;;;;;;21.25;55.97;100234.81;5064513;28;20024;-68
2022/08/02 01:12:18;;;;;;;3.13;2.30;;;;;;;21.21;56.13;100237.09;5076975;28;20056;-68
2022/08/02 01:14:48;;;;;;;5.43;2.58;;;;;;;21.01;56.13;100214.38;5081198;28;20027;-69
2022/08/02 01:17:41;;;;;;;5.13;2.35;;;;;;;21.08;56.10;100231.59;5078595;28;20032;-68
2022/08/02 01:20:37;;;;;;;8.48;2.70;;;;;;;21.04;56.61;100232.19;5079855;28;20034;-68
2022/08/02 01:23:36;;;;;;;9.60;2.67;;;;;;;20.94;57.31;100235.31;5074848;28;20037;-68
2022/08/02 01:26:19;;;;;;;6.72;2.70;;;;;;;20.88;57.34;100238.81;5076560;28;20052;-68
2022/08/02 01:29:00;;;;;;;4.55;2.47;;;;;;;20.81;57.68;100237.09;5079374;28;20535;-68
2022/08/02 01:31:33;;;;;;;4.80;2.42;;;;;;;20.75;58.10;100240.63;5077426;28;20546;-68
2022/08/02 01:34:10;;;;;;;5.38;2.30;;;;;;;20.72;57.54;100238.31;5060365;28;20040;-67
2022/08/02 01:36:41;;;;;;;4.93;2.25;;;;;;;20.71;56.28;100236.63;5072494;28;20123;-68
2022/08/02 01:39:13;;;;;;;3.83;2.17;;;;;;;20.73;54.94;100240.00;5074843;28;20032;-67
2022/08/02 01:41:40;;;;;;;4.93;2.33;;;;;;;20.77;53.81;100230.38;5083210;28;20395;-67
2022/08/02 01:44:07;;;;;;;4.82;2.53;;;;;;;20.65;53.33;100212.91;5071731;28;20020;-68
2022/08/02 01:46:33;;;;;;;5.68;2.20;;;;;;;20.82;53.06;100233.31;5073882;28;20035;-67
2022/08/02 01:49:03;;;;;;;3.47;1.85;;;;;;;20.83;52.78;100221.38;5072224;28;20036;-68
2022/08/02 01:54:18;;;;;;;4.18;2.00;;;;;;;20.89;52.83;100217.84;5081806;28;20559;-67
2022/08/02 01:56:44;;;;;;;5.15;2.25;;;;;;;20.90;52.88;100222.25;5077066;28;20030;-68
2022/08/02 01:59:17;;;;;;;4.20;1.70;;;;;;;20.80;52.85;100211.72;5092121;28;20611;-68
2022/08/02 02:01:44;;;;;;;8.23;2.13;;;;;;;20.86;52.62;100220.97;5082036;28;20098;-67
2022/08/02 02:04:13;;;;;;;3.13;2.15;;;;;;;20.83;52.59;100213.22;5099321;28;20048;-68
2022/08/02 02:06:39;;;;;;;4.50;2.03;;;;;;;20.85;52.50;100216.56;5082043;28;20024;-67
2022/08/02 02:09:06;;;;;;;2.20;1.80;;;;;;;20.85;52.26;100214.69;5077764;28;20039;-67
2022/08/02 02:11:33;;;;;;;2.55;1.80;;;;;;;20.70;52.31;100194.06;5081071;28;20104;-66
2022/08/02 02:14:00;;;;;;;3.05;1.65;;;;;;;20.84;52.60;100225.78;5075395;28;20028;-68
2022/08/02 02:16:27;;;;;;;4.95;1.90;;;;;;;20.82;53.13;100228.72;5076604;28;20028;-68
2022/08/02 02:18:53;;;;;;;4.13;1.65;;;;;;;20.81;53.93;100234.38;5082555;28;20481;-68
2022/08/02 02:21:19;;;;;;;5.22;2.20;;;;;;;20.78;54.11;100232.91;5082248;28;20572;-68
2022/08/02 02:23:45;;;;;;;5.38;2.03;;;;;;;20.65;54.36;100221.06;5068881;28;20052;-67
2022/08/02 02:26:14;;;;;;;3.38;2.15;;;;;;;20.68;54.35;100240.59;5051259;28;20032;-68
2022/08/02 02:28:40;;;;;;;9.65;2.58;;;;;;;20.64;55.03;100246.66;5069621;28;20024;-68
2022/08/02 02:31:09;;;;;;;3.45;1.90;;;;;;;20.58;55.85;100239.28;5071746;28;20029;-68
2022/08/02 02:33:40;;;;;;;9.30;2.22;;;;;;;20.53;56.13;100231.72;5069737;28;20032;-67
2022/08/02 02:36:08;;;;;;;4.82;2.22;;;;;;;20.50;56.37;100239.47;5067801;28;20375;-68
2022/08/02 02:38:35;;;;;;;3.05;1.90;;;;;;;20.38;56.40;100224.69;5072199;28;20441;-67
2022/08/02 02:41:03;;;;;;;2.97;2.40;;;;;;;20.34;56.10;100234.31;5069209;28;20028;-67
2022/08/02 02:43:31;;;;;;;6.20;2.55;;;;;;;20.44;55.75;100253.88;5069076;28;20094;-68
2022/08/02 02:45:57;;;;;;;4.60;2.17;;;;;;;20.42;55.58;100247.78;5071574;28;20060;-68
2022/08/02 02:48:25;;;;;;;3.92;2.05;;;;;;;20.42;55.36;100253.22;5067915;28;20028;-68
2022/08/02 02:50:52;;;;;;;2.40;1.98;;;;;;;20.30;55.19;100227.56;5090559;28;20033;-68
2022/08/02 02:53:19;;;;;;;5.45;1.90;;;;;;;20.44;54.98;100259.31;5070304;28;20043;-68
2022/08/02 02:55:45;;;;;;;4.85;2.00;;;;;;;20.42;54.77;100258.66;5067278;28;20549;-67
2022/08/02 02:58:12;;;;;;;2.67;1.73;;;;;;;20.41;54.65;100249.63;5085334;28;20055;-67
2022/08/02 03:03:23;;;;;;;3.90;2.42;;;;;;;20.42;54.72;100266.84;5079368;28;20035;-67
2022/08/02 03:05:49;;;;;;;6.05;2.33;;;;;;;20.37;54.74;100262.00;5082051;28;20075;-67
2022/08/02 03:08:14;;;;;;;7.45;2.60;;;;;;;20.34;54.98;100245.22;5080714;28;20075;-68
2022/08/02 03:10:42;;;;;;;6.68;3.03;;;;;;;20.31;57.22;100257.31;5066464;28;20024;-67
2022/08/02 03:13:09;;;;;;;5.93;2.75;;;;;;;20.30;57.76;100268.41;5069134;28;20048;-66
2022/08/02 03:15:36;;;;;;;6.57;2.80;;;;;;;20.24;58.08;100258.34;5083451;28;20031;-67
2022/08/02 03:18:02;;;;;;;9.10;3.30;;;;;;;20.16;57.70;100264.78;5075503;28;20734;-68
2022/08/02 03:20:27;;;;;;;9.27;2.70;;;;;;;20.08;57.88;100259.41;5077549;28;20035;-67
2022/08/02 03:22:53;;;;;;;10.52;2.78;;;;;;;19.95;58.53;100257.44;5079334;28;20233;-67
2022/08/02 03:25:18;;;;;;;10.13;3.05;;;;;;;19.92;59.43;100265.16;5083785;28;20765;-66
2022/08/02 03:27:44;;;;;;;15.75;3.05;;;;;;;19.78;59.20;100247.03;5095677;28;20036;-67
2022/08/02 03:30:11;;;;;;;6.18;2.50;;;;;;;19.77;59.35;100259.78;5075191;28;20028;-68
2022/08/02 03:32:39;;;;;;;6.75;2.63;;;;;;;19.73;59.59;100263.06;5074501;28;20031;-67
2022/08/02 03:35:08;;;;;;;8.45;2.38;;;;;;;19.58;60.23;100240.56;5075500;28;20393;-68
2022/08/02 03:37:35;;;;;;;10.27;2.65;;;;;;;19.58;60.63;100257.69;5089673;28;20033;-68
2022/08/02 03:40:02;;;;;;;7.07;2.58;;;;;;;19.52;60.62;100261.22;5072598;28;20055;-68
2022/08/02 03:42:28;;;;;;;10.13;2.65;;;;;;;19.36;61.02;100247.84;5067155;28;20106;-68
2022/08/02 03:44:58;;;;;;;8.93;2.67;;;;;;;19.41;62.08;100269.88;5082385;28;20755;-68
2022/08/02 03:47:24;;;;;;;11.48;3.00;;;;;;;19.39;62.17;100285.56;5078554;28;20049;-67
2022/08/02 03:49:50;;;;;;;11.57;3.40;;;;;;;19.35;62.37;100277.97;5069843;28;20479;-67
2022/08/02 03:52:16;;;;;;;10.15;3.10;;;;;;;19.33;62.97;100285.47;5071661;28;20033;-67
2022/08/02 03:54:42;;;;;;;7.32;2.97;;;;;;;19.32;62.66;100283.78;5068443;28;20020;-68
2022/08/02 03:57:09;;;;;;;11.13;3.00;;;;;;;19.28;62.55;100280.59;5068380;28;20024;-68
2022/08/02 03:59:45;;;;;;;15.20;3.17;;;;;;;19.16;62.77;100273.97;5070074;28;20032;-68
2022/08/02 04:02:11;;;;;;;12.88;3.25;;;;;;;19.23;62.55;100290.34;5074900;28;20025;-68
2022/08/02 04:04:37;;;;;;;22.45;4.13;;;;;;;19.21;62.99;100293.25;5074420;28;20383;-67
2022/08/02 04:07:05;;;;;;;19.02;3.33;;;;;;;19.23;62.97;100290.34;5080691;28;20048;-69
2022/08/02 04:09:30;;;;;;;14.68;3.47;;;;;;;19.24;62.87;100292.88;5070164;28;20116;-68
2022/08/02 04:11:56;;;;;;;14.32;3.88;;;;;;;19.24;63.04;100297.44;5071748;28;20036;-68
2022/08/02 04:14:22;;;;;;;16.83;3.95;;;;;;;19.26;63.11;100295.44;5077776;28;20020;-68
2022/08/02 04:17:00;;;;;;;12.38;3.58;;;;;;;19.29;63.62;100308.66;5078015;28;20024;-68
2022/08/02 04:19:48;;;;;;;11.23;3.00;;;;;;;19.32;62.88;100311.81;5076297;28;20028;-67
2022/08/02 04:22:17;;;;;;;14.10;3.30;;;;;;;19.29;62.85;100298.63;5073842;28;20036;-68
2022/08/02 04:24:48;;;;;;;4.68;2.88;;;;;;;19.45;62.61;100311.97;5092030;28;20021;-69
2022/08/02 04:27:14;;;;;;;10.55;3.38;;;;;;;19.53;62.31;100308.28;5079945;28;20069;-69
2022/08/02 04:29:41;;;;;;;10.70;3.25;;;;;;;19.67;62.12;100318.31;5075158;28;20581;-69
2022/08/02 04:32:07;;;;;;;12.50;3.55;;;;;;;19.60;61.75;100291.00;5075881;28;20378;-68
2022/08/02 04:34:33;;;;;;;11.55;3.25;;;;;;;19.91;60.98;100324.22;5075682;28;20955;-68
2022/08/02 04:36:59;;;;;;;12.93;3.15;;;;;;;19.98;60.39;100313.38;5072666;28;20712;-69
2022/08/02 04:39:25;;;;;;;12.77;3.15;;;;;;;20.02;59.79;100301.91;5073763;28;20033;-68
2022/08/02 04:41:51;;;;;;;10.70;3.35;;;;;;;20.25;59.48;100326.25;5075292;28;20466;-68
2022/08/02 04:44:16;;;;;;;9.55;3.00;;;;;;;20.39;59.38;100317.13;5082406;28;20037;-69
2022/08/02 04:46:44;;;;;;;9.95;2.80;;;;;;;20.54;59.08;100306.13;5074500;28;20567;-68
2022/08/02 04:49:09;;;;;;;16.52;3.55;;;;;;;20.72;58.51;100317.34;5075584;28;20063;-67
2022/08/02 04:51:39;;;;;;;14.00;3.50;;;;;;;20.89;58.12;100308.66;5085396;28;20004;-67
2022/08/02 04:54:06;;;;;;;9.73;3.13;;;;;;;21.02;57.72;100313.41;5098204;28;20066;-67
2022/08/02 04:56:32;;;;;;;9.38;3.30;;;;;;;21.16;57.35;100316.00;5098537;28;20941;-65
2022/08/02 04:58:57;;;;;;;29.35;4.95;;;;;;;21.31;56.80;100313.94;5104856;28;20027;-64
2022/08/02 05:01:32;;;;;;;24.38;4.68;;;;;;;21.52;56.35;100323.88;5097234;28;20063;-68
2022/08/02 05:03:58;;;;;;;13.50;3.63;;;;;;;21.68;55.99;100318.06;5080971;28;20032;-66
2022/08/02 05:06:23;;;;;;;9.32;3.10;;;;;;;21.94;55.62;100320.88;5084533;28;20051;-67
2022/08/02 05:08:49;;;;;;;13.15;3.83;;;;;;;22.12;55.17;100316.47;5093006;28;21734;-66
2022/08/02 05:11:15;;;;;;;11.35;3.05;;;;;;;22.13;54.92;100296.31;5091506;28;20005;-67
2022/08/02 05:13:41;;;;;;;13.73;3.75;;;;;;;22.48;54.58;100327.00;5089645;28;20046;-66
2022/08/02 05:16:06;;;;;;;12.20;2.92;;;;;;;22.66;54.11;100318.19;5086602;28;20044;-65
2022/08/02 05:18:32;;;;;;;20.27;3.58;;;;;;;22.67;53.93;100303.47;5088187;28;20032;-66
2022/08/02 05:20:57;;;;;;;16.80;4.13;;;;;;;22.88;53.73;100315.00;5093257;28;20016;-67
2022/08/02 05:23:23;;;;;;;16.30;3.83;;;;;;;23.06;53.47;100331.59;5087404;28;20108;-65
2022/08/02 05:25:48;;;;;;;25.95;4.07;;;;;;;23.19;52.97;100333.44;5089522;28;20044;-67
2022/08/02 05:28:14;;;;;;;7.88;2.50;;;;;;;23.29;50.80;100334.69;5095505;28;20028;-67
2022/08/02 05:30:40;;;;;;;11.75;2.80;;;;;;;23.33;50.51;100319.50;5096758;28;20080;-66
2022/08/02 05:33:05;;;;;;;9.50;2.70;;;;;;;23.48;49.82;100330.19;5106744;28;20042;-68
2022/08/02 05:35:32;;;;;;;7.72;2.95;;;;;;;23.60;49.77;100337.50;5105593;28;20024;-67
2022/08/02 05:37:57;;;;;;;11.40;2.80;;;;;;;23.67;49.81;100332.81;5092120;28;20035;-66
2022/08/02 05:40:23;;;;;;;8.38;2.70;;;;;;;23.81;49.49;100345.41;5084409;28;20036;-67
2022/08/02 05:42:48;;;;;;;9.65;2.60;;;;;;;23.95;49.31;100341.53;5073070;28;20430;-66
2022/08/02 05:45:14;;;;;;;8.73;3.00;;;;;;;24.06;48.03;100334.53;5076083;28;20043;-67
2022/08/02 05:47:39;;;;;;;10.30;2.45;;;;;;;24.32;47.02;100346.13;5083601;28;20032;-66
2022/08/02 05:50:07;;;;;;;4.15;2.28;;;;;;;24.43;46.20;100334.44;5082654;28;20028;-67
2022/08/02 05:52:43;;;;;;;7.93;2.38;;;;;;;24.69;46.03;100340.81;5084209;28;20028;-67
2022/08/02 05:55:27;;;;;;;5.05;2.25;;;;;;;24.91;45.45;100333.81;5098742;28;20027;-67
2022/08/02 05:58:04;;;;;;;6.10;2.08;;;;;;;25.14;44.69;100343.06;5098380;28;20028;-67
2022/08/02 06:00:32;;;;;;;8.75;2.45;;;;;;;25.24;44.04;100334.31;5098361;28;20031;-66
2022/08/02 06:03:18;;;;;;;9.75;2.55;;;;;;;25.44;43.71;100349.50;5087533;28;20035;-67
2022/08/02 06:06:03;;;;;;;12.40;3.05;;;;;;;25.60;43.76;100345.28;5072195;28;21329;-67
2022/08/02 06:08:33;;;;;;;6.18;2.38;;;;;;;25.74;43.55;100353.13;5102459;28;20543;-66
2022/08/02 06:11:02;;;;;;;10.13;2.97;;;;;;;25.92;42.94;100358.56;5070832;28;20512;-66
2022/08/02 06:13:27;;;;;;;10.75;2.97;;;;;;;26.12;42.37;100364.66;5083899;28;20028;-66
2022/08/02 06:15:58;;;;;;;9.10;2.30;;;;;;;26.28;41.83;100352.16;5060295;28;20089;-67
2022/08/02 06:18:28;;;;;;;8.05;2.83;;;;;;;26.47;41.53;100351.81;5070849;28;20028;-67
2022/08/02 06:20:57;;;;;;;9.30;2.90;;;;;;;26.69;40.72;100367.81;5099130;28;20032;-67
2022/08/02 06:23:24;;;;;;;13.02;3.05;;;;;;;26.81;40.46;100360.38;5055342;28;20036;-67
2022/08/02 06:25:52;;;;;;;18.83;3.47;;;;;;;26.86;40.33;100344.84;5076629;28;20121;-66
2022/08/02 06:28:18;;;;;;;9.57;2.22;;;;;;;27.13;40.62;100365.31;5073207;28;20024;-68
2022/08/02 06:30:44;;;;;;;9.18;2.28;;;;;;;27.34;39.97;100369.38;5061250;28;20323;-67
2022/08/02 06:33:11;;;;;;;5.40;2.08;;;;;;;27.53;39.55;100359.88;5079729;28;20017;-67
2022/08/02 06:35:39;;;;;;;12.38;2.67;;;;;;;27.80;38.37;100372.88;5084264;28;20111;-67
2022/08/02 06:38:07;;;;;;;9.25;1.88;;;;;;;27.94;38.35;100374.28;5065988;28;20036;-66
2022/08/02 06:40:44;;;;;;;7.63;2.20;;;;;;;28.00;38.40;100353.13;5083544;28;20054;-67
2022/08/02 06:43:27;;;;;;;4.10;2.03;;;;;;;28.42;37.84;100371.03;5057088;28;20024;-68
2022/08/02 06:45:53;;;;;;;4.63;1.77;;;;;;;28.68;37.14;100377.81;5075375;28;20086;-66
2022/08/02 06:48:18;;;;;;;5.53;2.58;;;;;;;28.86;36.88;100375.69;5075833;28;20040;-68
2022/08/02 06:50:44;;;;;;;8.82;2.20;;;;;;;28.97;36.48;100374.72;5077606;28;20482;-67
2022/08/02 06:53:10;;;;;;;4.40;1.90;;;;;;;29.10;36.18;100370.81;5076370;28;20517;-67
2022/08/02 06:55:36;;;;;;;3.97;1.75;;;;;;;29.30;35.72;100376.66;5066576;28;20052;-66
2022/08/02 06:58:02;;;;;;;3.50;1.95;;;;;;;29.41;36.02;100368.25;5070552;28;20033;-67
2022/08/02 07:00:28;;;;;;;2.53;1.70;;;;;;;29.54;35.70;100367.84;5078064;28;20036;-68
2022/08/02 07:02:53;;;;;;;3.10;1.70;;;;;;;29.71;35.17;100370.56;5069905;28;20029;-67
2022/08/02 07:05:19;;;;;;;3.55;1.70;;;;;;;29.87;35.10;100364.97;5072440;28;20051;-67
2022/08/02 07:07:45;;;;;;;2.70;1.92;;;;;;;29.98;34.84;100357.63;5077966;28;20039;-66
2022/08/02 07:10:12;;;;;;;4.15;1.90;;;;;;;30.12;34.19;100359.69;5090306;28;20044;-66
2022/08/02 07:12:37;;;;;;;5.65;1.95;;;;;;;30.22;34.26;100347.94;5075329;28;20130;-66
2022/08/02 07:15:06;;;;;;;3.97;1.95;;;;;;;30.30;33.93;100339.16;5081942;28;20024;-67
2022/08/02 07:17:32;;;;;;;4.82;1.92;;;;;;;30.42;33.77;100346.22;5081100;28;20416;-67
2022/08/02 07:19:58;;;;;;;3.83;1.52;;;;;;;30.50;33.89;100351.25;5077419;28;20032;-67
2022/08/02 07:22:25;;;;;;;6.97;2.28;;;;;;;30.60;33.80;100353.28;5071363;28;20036;-67
2022/08/02 07:24:51;;;;;;;2.83;1.75;;;;;;;30.69;33.38;100345.31;5098108;28;20434;-68
2022/08/02 07:27:17;;;;;;;4.45;1.75;;;;;;;30.76;33.36;100349.56;5069169;28;20024;-67
2022/08/02 07:29:43;;;;;;;3.88;1.90;;;;;;;30.79;33.01;100337.97;5075845;28;20115;-68
2022/08/02 07:32:08;;;;;;;2.45;2.05;;;;;;;30.90;33.33;100341.63;5078522;28;20028;-67
2022/08/02 07:34:34;;;;;;;2.00;1.70;;;;;;;30.98;33.45;100341.13;5085997;28;20035;-67
2022/08/02 07:37:00;;;;;;;2.63;1.85;;;;;;;30.91;33.02;100321.16;5083831;28;20039;-67
2022/08/02 07:39:26;;;;;;;2.42;1.48;;;;;;;31.05;32.88;100328.72;5062599;28;20027;-67
2022/08/02 07:41:51;;;;;;;2.75;1.52;;;;;;;31.22;32.34;100343.22;5077982;28;20444;-66
2022/08/02 07:44:17;;;;;;;1.88;1.70;;;;;;;31.31;32.26;100341.66;5060735;28;20158;-66
2022/08/02 07:46:43;;;;;;;3.75;1.67;;;;;;;31.38;32.13;100346.94;5068902;28;20103;-66
2022/08/02 07:49:09;;;;;;;3.65;1.67;;;;;;;31.30;32.26;100344.69;5075516;28;20555;-67
2022/08/02 07:51:35;;;;;;;2.30;1.65;;;;;;;31.40;32.04;100353.06;5080607;28;20096;-67
2022/08/02 07:54:01;;;;;;;1.95;1.85;;;;;;;31.44;31.80;100352.25;5081043;28;20047;-67
2022/08/02 07:56:27;;;;;;;4.32;1.83;;;;;;;31.44;31.78;100354.19;5072212;28;20059;-68
2022/08/02 07:58:52;;;;;;;3.10;1.70;;;;;;;31.39;32.24;100341.13;5066595;28;20044;-67
2022/08/02 08:01:18;;;;;;;2.72;1.75;;;;;;;31.39;32.19;100351.38;5073362;28;20028;-67
2022/08/02 08:03:44;;;;;;;3.35;1.80;;;;;;;31.37;32.33;100356.38;5075816;28;20028;-67
2022/08/02 08:06:10;;;;;;;4.25;1.85;;;;;;;31.37;32.10;100354.41;5073707;28;20056;-67
2022/08/02 08:08:35;;;;;;;2.10;1.90;;;;;;;31.36;32.26;100351.91;5070116;28;20039;-67
2022/08/02 08:11:01;;;;;;;2.25;1.80;;;;;;;31.36;32.42;100355.53;5069941;28;20040;-68
2022/08/02 08:13:26;;;;;;;2.72;2.00;;;;;;;31.40;32.28;100355.81;5074218;28;20046;-67
2022/08/02 08:15:52;;;;;;;3.63;1.77;;;;;;;31.42;32.39;100357.22;5096652;28;20821;-67
2022/08/02 08:18:18;;;;;;;3.47;2.20;;;;;;;31.44;32.57;100357.78;5077683;28;20020;-67
2022/08/02 08:20:43;;;;;;;5.20;1.73;;;;;;;31.45;32.24;100353.91;5082949;28;20492;-67
2022/08/02 08:23:08;;;;;;;2.25;1.80;;;;;;;31.47;31.85;100345.31;5075091;28;20113;-67
2022/08/02 08:25:34;;;;;;;2.58;2.00;;;;;;;31.57;31.90;100362.84;5074588;28;20036;-66
2022/08/02 08:27:59;;;;;;;2.97;1.73;;;;;;;31.64;31.87;100355.09;5074583;28;20040;-66
2022/08/02 08:30:25;;;;;;;2.08;1.80;;;;;;;31.64;31.74;100352.34;5068279;28;20099;-67
2022/08/02 08:32:50;;;;;;;2.30;1.90;;;;;;;31.70;31.67;100351.25;5072297;28;20031;-67
2022/08/02 08:35:16;;;;;;;2.13;1.50;;;;;;;31.74;31.66;100349.59;5079382;28;20020;-67
2022/08/02 08:37:42;;;;;;;1.60;1.50;;;;;;;31.86;32.05;100363.25;5065350;28;20028;-67
2022/08/02 08:40:09;;;;;;;2.42;1.80;;;;;;;31.91;31.60;100355.78;5076045;28;20598;-68
2022/08/02 08:42:37;;;;;;;2.80;2.00;;;;;;;31.95;31.76;100356.91;5068150;28;20055;-67
2022/08/02 08:45:04;;;;;;;3.00;1.83;;;;;;;31.94;31.69;100340.50;5074594;28;20560;-67
2022/08/02 08:47:35;;;;;;;5.18;2.05;;;;;;;32.06;31.30;100355.81;5074536;28;20040;-67
2022/08/02 08:50:05;;;;;;;3.92;2.03;;;;;;;32.11;31.20;100357.78;5074498;28;20103;-67
2022/08/02 08:52:38;;;;;;;2.30;1.90;;;;;;;31.91;31.23;100341.91;5078034;28;20047;-67
2022/08/02 08:55:06;;;;;;;3.67;1.88;;;;;;;31.89;32.10;100333.00;5083000;28;20052;-68
2022/08/02 08:57:34;;;;;;;3.92;2.00;;;;;;;32.06;31.68;100350.28;5070172;28;20402;-68
2022/08/02 08:59:59;;;;;;;5.22;2.13;;;;;;;32.12;31.77;100346.41;5082064;28;20040;-68
2022/08/02 09:02:25;;;;;;;3.55;1.90;;;;;;;32.17;31.64;100342.78;5071652;28;20040;-66
2022/08/02 09:04:51;;;;;;;4.75;1.73;;;;;;;32.28;31.42;100341.72;5066981;28;20058;-67
2022/08/02 09:07:16;;;;;;;4.00;1.70;;;;;;;32.33;31.47;100342.56;5082478;28;20050;-66
2022/08/02 09:09:41;;;;;;;2.10;1.75;;;;;;;32.37;31.39;100340.91;5074407;28;20474;-67
2022/08/02 09:12:15;;;;;;;3.13;1.80;;;;;;;32.40;31.40;100345.09;5080650;28;20088;-67
2022/08/02 09:14:40;;;;;;;2.78;1.77;;;;;;;32.46;31.70;100353.13;5085492;28;20024;-67
2022/08/02 09:17:11;;;;;;;2.22;1.70;;;;;;;32.45;31.39;100339.53;5075979;28;20120;-67
2022/08/02 09:19:38;;;;;;;2.22;1.90;;;;;;;32.58;31.06;100361.19;5077038;28;20054;-68
2022/08/02 09:22:09;;;;;;;2.22;1.75;;;;;;;32.52;31.27;100352.03;5069038;28;20242;-67
2022/08/02 09:24:46;;;;;;;3.72;1.90;;;;;;;32.50;31.55;100356.19;5072606;28;20483;-67
2022/08/02 09:27:21;;;;;;;5.22;2.15;;;;;;;32.48;31.13;100356.47;5095617;28;20020;-67
2022/08/02 09:29:51;;;;;;;7.78;2.20;;;;;;;32.46;31.48;100360.63;5079917;28;20064;-67
2022/08/02 09:32:18;;;;;;;2.42;1.90;;;;;;;32.34;31.70;100346.19;5085521;28;20020;-67
2022/08/02 09:34:44;;;;;;;4.88;2.08;;;;;;;32.28;31.83;100342.50;5088669;28;20039;-67
2022/08/02 09:37:30;;;;;;;3.22;2.00;;;;;;;32.21;31.81;100350.28;5089345;28;20114;-68
2022/08/02 09:40:02;;;;;;;2.20;2.00;;;;;;;32.19;31.97;100354.47;5070209;28;20047;-68
2022/08/02 09:42:28;;;;;;;2.90;2.33;;;;;;;32.08;32.34;100328.63;5088964;28;20052;-68
2022/08/02 09:45:00;;;;;;;5.78;2.22;;;;;;;32.21;32.05;100346.69;5088583;28;20408;-67
2022/08/02 09:47:28;;;;;;;3.05;2.08;;;;;;;32.27;31.87;100345.59;5089147;28;20032;-68
2022/08/02 09:49:55;;;;;;;2.60;2.03;;;;;;;32.25;31.59;100345.88;5084534;28;20111;-67
2022/08/02 09:52:31;;;;;;;2.85;2.30;;;;;;;32.27;31.56;100345.59;5079272;28;20038;-67
2022/08/02 09:55:06;;;;;;;4.22;1.80;;;;;;;32.23;31.71;100339.75;5087889;28;20438;-67
2022/08/02 09:57:32;;;;;;;4.47;1.90;;;;;;;32.31;31.29;100344.75;5057937;28;20420;-68
2022/08/02 09:59:58;;;;;;;2.15;1.95;;;;;;;32.21;31.41;100335.59;5083227;28;20024;-68
2022/08/02 10:02:24;;;;;;;2.47;1.88;;;;;;;32.20;31.41;100331.97;5068227;28;20063;-66
2022/08/02 10:04:50;;;;;;;4.13;1.85;;;;;;;32.22;31.69;100335.31;5075439;28;20613;-67
2022/08/02 10:07:17;;;;;;;6.03;2.05;;;;;;;32.24;31.79;100341.41;5068332;28;20071;-67
2022/08/02 10:09:45;;;;;;;4.05;2.03;;;;;;;32.28;31.69;100331.41;5068043;28;20113;-66
2022/08/02 10:12:12;;;;;;;3.08;2.25;;;;;;;32.34;31.77;100338.69;5067864;28;20017;-67
2022/08/02 10:14:38;;;;;;;1.95;1.83;;;;;;;32.38;31.58;100339.81;5082482;28;20022;-67
2022/08/02 10:17:05;;;;;;;2.55;1.80;;;;;;;32.34;31.48;100330.34;5074050;28;20078;-68
2022/08/02 10:19:31;;;;;;;2.40;1.80;;;;;;;32.38;31.16;100325.94;5067644;28;20032;-67
2022/08/02 10:21:59;;;;;;;4.38;1.90;;;;;;;32.45;31.61;100339.53;5075069;28;20051;-68
2022/08/02 10:24:29;;;;;;;2.33;1.92;;;;;;;32.42;31.28;100332.59;5087736;28;20496;-68
2022/08/02 10:26:58;;;;;;;2.17;1.77;;;;;;;32.39;31.49;100327.59;5087364;28;20032;-68
2022/08/02 10:29:32;;;;;;;3.83;1.55;;;;;;;32.35;31.42;100322.84;5087546;28;20521;-68
2022/08/02 10:32:10;;;;;;;2.72;2.10;;;;;;;32.32;31.67;100321.44;5069184;28;20028;-68
2022/08/02 10:34:53;;;;;;;2.47;2.10;;;;;;;32.30;31.87;100320.88;5087280;28;20439;-68
2022/08/02 10:37:21;;;;;;;3.90;2.17;;;;;;;32.30;31.71;100331.13;5086937;28;20028;-69
2022/08/02 10:39:54;;;;;;;4.88;2.10;;;;;;;32.25;31.76;100314.50;5070059;28;20584;-67
2022/08/02 10:42:42;;;;;;;5.35;2.22;;;;;;;32.33;31.95;100325.91;5067241;28;20078;-68
2022/08/02 10:45:16;;;;;;;3.75;1.70;;;;;;;32.37;32.08;100312.31;5051171;28;20032;-69
2022/08/02 10:48:01;;;;;;;3.88;2.17;;;;;;;32.49;32.08;100322.03;5068110;28;20066;-67
2022/08/02 10:50:45;;;;;;;4.60;1.92;;;;;;;32.58;31.89;100328.69;5077737;28;20545;-68
2022/08/02 10:53:21;;;;;;;;;;;;;;;32.64;31.96;100329.53;5067572;28;20029;-68
2022/08/02 10:55:46;;;;;;;2.97;2.03;;;;;;;32.72;31.29;100312.28;5080330;28;20004;-66
2022/08/02 10:58:18;;;;;;;4.28;1.98;;;;;;;32.78;30.99;100313.94;5069374;28;20059;-66
2022/08/02 11:00:43;;;;;;;4.68;2.15;;;;;;;32.76;31.28;100302.28;5065875;28;20040;-69
2022/08/02 11:03:27;;;;;;;3.00;2.20;;;;;;;32.83;31.36;100311.16;5067321;28;20047;-67
2022/08/02 11:06:04;;;;;;;2.05;1.88;;;;;;;32.89;30.92;100303.69;5064469;28;20064;-68
2022/08/02 11:08:30;;;;;;;2.25;1.80;;;;;;;32.85;31.01;100289.50;5067154;28;20048;-67
2022/08/02 11:11:13;;;;;;;4.10;1.90;;;;;;;33.05;30.61;100305.31;5086853;28;20039;-68
2022/08/02 11:14:00;;;;;;;2.10;1.90;;;;;;;32.95;30.79;100302.56;5087025;28;20032;-68
2022/08/02 11:16:54;;;;;;;4.28;2.08;;;;;;;32.87;30.49;100292.00;5076613;28;20032;-67
2022/08/02 11:19:20;;;;;;;2.10;1.90;;;;;;;32.84;30.66;100295.31;5087088;28;20119;-67
2022/08/02 11:22:01;;;;;;;4.55;2.00;;;;;;;32.88;30.76;100296.47;5081914;28;20099;-67
2022/08/02 11:24:30;;;;;;;3.47;2.13;;;;;;;32.87;30.81;100284.50;5077409;28;20033;-67
2022/08/02 11:26:57;;;;;;;7.05;2.30;;;;;;;32.83;30.80;100276.97;5066365;28;20035;-67
2022/08/02 11:29:37;;;;;;;4.90;2.10;;;;;;;32.86;30.74;100270.91;5066659;28;20071;-67
2022/08/02 11:32:03;;;;;;;2.30;2.10;;;;;;;32.98;31.25;100274.22;5066639;28;20036;-67
2022/08/02 11:34:31;;;;;;;3.20;1.90;;;;;;;33.05;30.96;100277.53;5066575;28;20134;-67
2022/08/02 11:36:57;;;;;;;4.38;1.98;;;;;;;33.12;30.96;100278.03;5066358;28;20115;-66